Time;durP1;ratioP1;P1;durP2;ratioP2;P2;SDS_P1;SDS_P2;PMS_P1;PMS_P2;Temp;Humidity;BMP_temperature;BMP_pressure;BME280_temperature;BME280_humidity;BME280_pressure;Samples;Min_cycle;Max_cycle;Signal;HPM_P1;HPM_P2
2021/05/09 00:00:14;;;;;;;3.20;2.90;;;11.30;99.90;;;;;;5071125;28;20594;-55
2021/05/09 00:02:40;;;;;;;3.40;3.10;;;11.20;99.90;;;;;;5071394;28;20704;-53
2021/05/09 00:05:07;;;;;;;4.50;3.60;;;11.40;99.90;;;;;;5071456;28;20220;-54
2021/05/09 00:07:33;;;;;;;4.45;3.35;;;11.20;99.90;;;;;;5062548;28;20225;-54
2021/05/09 00:09:59;;;;;;;3.27;2.93;;;11.10;99.90;;;;;;5070963;28;20625;-54
2021/05/09 00:12:24;;;;;;;4.87;3.40;;;11.30;99.90;;;;;;5070367;28;20686;-54
2021/05/09 00:14:50;;;;;;;3.50;3.10;;;11.10;99.90;;;;;;5070899;28;20813;-54
2021/05/09 00:17:17;;;;;;;3.40;3.10;;;11.10;99.90;;;;;;5070653;28;20169;-55
2021/05/09 00:19:43;;;;;;;3.38;3.08;;;11.20;99.90;;;;;;5064717;28;20423;-55
2021/05/09 00:22:08;;;;;;;4.20;2.77;;;11.10;99.90;;;;;;5071472;28;20184;-54
2021/05/09 00:24:34;;;;;;;2.93;2.73;;;11.20;99.90;;;;;;5070582;28;20511;-55
2021/05/09 00:26:59;;;;;;;2.60;2.40;;;11.10;99.90;;;;;;5070453;28;20272;-54
2021/05/09 00:29:25;;;;;;;3.67;2.83;;;11.20;99.90;;;;;;5069391;28;20195;-55
2021/05/09 00:31:50;;;;;;;2.70;2.50;;;11.10;99.90;;;;;;5069550;28;20255;-55
2021/05/09 00:34:16;;;;;;;4.13;3.47;;;11.50;99.90;;;;;;5070384;28;20576;-55
2021/05/09 00:36:42;;;;;;;3.40;3.10;;;11.40;99.90;;;;;;5070278;28;20504;-54
2021/05/09 00:39:07;;;;;;;3.47;3.17;;;10.70;99.90;;;;;;5072576;28;20285;-55
2021/05/09 00:41:33;;;;;;;5.57;3.33;;;11.00;99.90;;;;;;5070331;28;20650;-54
2021/05/09 00:43:59;;;;;;;3.37;3.07;;;11.30;99.90;;;;;;5070010;28;20217;-55
2021/05/09 00:46:24;;;;;;;4.00;3.60;;;11.10;99.90;;;;;;5070199;28;20184;-54
2021/05/09 00:48:50;;;;;;;3.40;3.10;;;11.10;99.90;;;;;;5070105;28;20185;-54
2021/05/09 00:51:16;;;;;;;3.27;3.00;;;10.80;99.90;;;;;;5070046;28;20185;-54
2021/05/09 00:53:43;;;;;;;3.30;2.50;;;10.80;99.90;;;;;;5070386;28;20826;-55
2021/05/09 00:56:13;;;;;;;2.90;2.63;;;11.10;99.90;;;;;;5070904;28;20647;-54
2021/05/09 00:58:42;;;;;;;3.33;3.03;;;10.80;99.90;;;;;;5069518;28;20241;-54
2021/05/09 01:01:09;;;;;;;3.00;2.80;;;10.80;99.90;;;;;;5071952;28;20196;-54
2021/05/09 01:03:37;;;;;;;4.30;2.90;;;11.10;99.90;;;;;;5071278;28;20674;-55
2021/05/09 01:06:04;;;;;;;2.80;2.60;;;11.10;99.90;;;;;;5044101;28;20342;-54
2021/05/09 01:08:30;;;;;;;2.90;2.70;;;11.10;99.90;;;;;;5063695;28;20213;-55
2021/05/09 01:10:56;;;;;;;2.90;2.60;;;11.00;99.90;;;;;;5068118;28;20272;-55
2021/05/09 01:13:22;;;;;;;2.90;2.70;;;11.10;99.90;;;;;;5075739;28;20212;-54
2021/05/09 01:15:47;;;;;;;3.05;2.70;;;11.10;99.90;;;;;;5069593;28;20180;-55
2021/05/09 01:18:13;;;;;;;3.00;2.80;;;10.90;99.90;;;;;;5069420;28;20181;-54
2021/05/09 01:20:39;;;;;;;2.63;2.43;;;10.90;99.90;;;;;;5069468;28;20404;-55
2021/05/09 01:23:05;;;;;;;2.67;2.43;;;11.00;99.90;;;;;;5069518;28;20778;-54
2021/05/09 01:25:32;;;;;;;4.07;3.20;;;10.70;99.90;;;;;;5074972;28;20303;-55
2021/05/09 01:27:57;;;;;;;3.47;3.10;;;11.00;99.90;;;;;;5075070;28;20181;-54
2021/05/09 01:30:24;;;;;;;3.17;2.50;;;11.00;99.90;;;;;;5069147;28;20650;-55
2021/05/09 01:32:50;;;;;;;2.55;2.35;;;10.80;99.90;;;;;;5070539;28;20453;-55
2021/05/09 01:35:15;;;;;;;3.10;2.80;;;10.70;99.90;;;;;;5069387;28;20268;-55
2021/05/09 01:37:41;;;;;;;3.10;2.90;;;10.80;99.90;;;;;;5070490;28;20918;-54
2021/05/09 01:40:08;;;;;;;3.10;2.80;;;11.20;99.90;;;;;;5070710;28;20672;-54
2021/05/09 01:42:34;;;;;;;3.58;2.58;;;10.70;99.90;;;;;;5069061;28;20492;-55
2021/05/09 01:45:00;;;;;;;3.97;3.00;;;10.80;99.90;;;;;;5069189;28;20600;-55
2021/05/09 01:47:26;;;;;;;4.45;2.28;;;10.90;99.90;;;;;;5068107;28;20470;-54
2021/05/09 01:49:52;;;;;;;2.63;2.43;;;10.90;99.90;;;;;;5069587;28;20654;-55
2021/05/09 01:52:19;;;;;;;3.03;2.50;;;10.80;99.90;;;;;;5068589;28;20460;-54
2021/05/09 01:54:45;;;;;;;2.65;2.45;;;10.90;99.90;;;;;;5069099;28;20188;-55
2021/05/09 01:57:11;;;;;;;2.17;1.97;;;10.80;99.90;;;;;;5068771;28;20185;-54
2021/05/09 01:59:37;;;;;;;2.40;2.20;;;11.10;99.90;;;;;;5068553;28;20815;-55
2021/05/09 02:02:03;;;;;;;2.93;2.70;;;11.00;99.90;;;;;;5069660;28;20192;-54
2021/05/09 02:04:29;;;;;;;3.17;2.87;;;11.10;99.90;;;;;;5074424;28;20208;-55
2021/05/09 02:06:55;;;;;;;2.53;2.30;;;11.20;99.90;;;;;;5068514;28;20443;-54
2021/05/09 02:09:20;;;;;;;3.00;2.50;;;10.70;99.90;;;;;;5068510;28;20271;-54
2021/05/09 02:11:46;;;;;;;1.90;1.80;;;11.10;99.90;;;;;;5068523;28;20433;-54
2021/05/09 02:14:11;;;;;;;2.20;2.00;;;11.00;99.90;;;;;;5067793;28;20213;-54
2021/05/09 02:16:37;;;;;;;2.37;2.17;;;11.00;99.90;;;;;;5067275;28;20178;-52
2021/05/09 02:19:03;;;;;;;2.53;2.33;;;11.00;99.90;;;;;;5068831;28;20710;-53
2021/05/09 02:21:29;;;;;;;2.20;2.10;;;11.20;99.90;;;;;;5068425;28;20530;-52
2021/05/09 02:23:55;;;;;;;2.63;2.40;;;11.00;99.90;;;;;;5068481;28;21002;-52
2021/05/09 02:26:20;;;;;;;2.20;2.00;;;11.00;99.90;;;;;;5068336;28;20958;-52
2021/05/09 02:28:46;;;;;;;2.23;2.03;;;11.30;99.90;;;;;;5068328;28;20186;-53
2021/05/09 02:31:12;;;;;;;2.20;2.00;;;11.10;99.90;;;;;;5051114;28;20202;-53
2021/05/09 02:33:37;;;;;;;3.03;2.40;;;11.20;99.90;;;;;;5047668;28;20206;-53
2021/05/09 02:36:03;;;;;;;2.30;2.10;;;11.10;99.90;;;;;;5061029;28;20186;-53
2021/05/09 02:38:29;;;;;;;2.25;2.08;;;11.00;99.90;;;;;;5068078;28;20232;-53
2021/05/09 02:40:54;;;;;;;2.80;2.60;;;11.30;99.90;;;;;;5064909;28;20178;-53
2021/05/09 02:43:20;;;;;;;2.00;1.90;;;11.00;99.90;;;;;;5068278;28;20220;-53
2021/05/09 02:45:46;;;;;;;2.33;2.13;;;11.30;99.90;;;;;;5068822;28;20589;-54
2021/05/09 02:48:12;;;;;;;2.50;2.30;;;11.00;99.90;;;;;;5067959;28;20185;-53
2021/05/09 02:50:38;;;;;;;2.67;2.20;;;11.30;99.90;;;;;;5067932;28;20192;-53
2021/05/09 02:53:04;;;;;;;2.47;1.75;;;11.30;99.90;;;;;;5069932;28;20218;-52
2021/05/09 02:55:30;;;;;;;3.08;2.47;;;11.30;99.90;;;;;;5068085;28;20185;-52
2021/05/09 02:57:55;;;;;;;2.30;2.13;;;11.50;99.90;;;;;;5068079;28;20317;-53
2021/05/09 03:00:21;;;;;;;2.50;2.30;;;11.30;99.90;;;;;;5067562;28;20182;-52
2021/05/09 03:02:50;;;;;;;2.40;2.20;;;11.20;99.90;;;;;;5067794;28;20769;-53
2021/05/09 03:05:15;;;;;;;3.03;2.72;;;11.40;99.90;;;;;;5067602;28;20187;-53
2021/05/09 03:07:41;;;;;;;3.00;2.47;;;11.50;99.90;;;;;;5066675;28;20193;-53
2021/05/09 03:10:07;;;;;;;4.13;2.70;;;11.50;99.90;;;;;;5070116;28;20255;-53
2021/05/09 03:12:33;;;;;;;4.45;3.05;;;11.50;99.90;;;;;;5068710;28;20212;-54
2021/05/09 03:14:58;;;;;;;3.87;2.80;;;11.50;99.90;;;;;;5067436;28;20239;-54
2021/05/09 03:17:24;;;;;;;2.80;2.60;;;11.50;99.90;;;;;;5067698;28;20717;-54
2021/05/09 03:19:49;;;;;;;3.03;2.57;;;11.40;99.90;;;;;;5067594;28;20182;-54
2021/05/09 03:22:15;;;;;;;2.70;2.50;;;11.50;99.90;;;;;;5068143;28;20535;-53
2021/05/09 03:24:41;;;;;;;3.03;2.72;;;11.30;99.90;;;;;;5067668;28;20238;-53
2021/05/09 03:27:07;;;;;;;2.70;2.50;;;11.70;99.90;;;;;;5068306;28;20271;-54
2021/05/09 03:29:32;;;;;;;3.23;2.97;;;11.40;99.90;;;;;;5067675;28;20845;-53
2021/05/09 03:31:58;;;;;;;4.97;2.73;;;11.60;99.90;;;;;;5068527;28;20214;-53
2021/05/09 03:34:23;;;;;;;2.73;2.53;;;11.60;99.90;;;;;;5068938;28;20290;-53
2021/05/09 03:36:49;;;;;;;2.83;2.63;;;11.50;99.90;;;;;;5067326;28;20601;-53
2021/05/09 03:39:15;;;;;;;3.60;2.60;;;11.60;99.90;;;;;;5067022;28;20182;-53
2021/05/09 03:41:40;;;;;;;2.90;2.70;;;11.50;99.90;;;;;;5074583;28;20182;-53
2021/05/09 03:44:07;;;;;;;3.00;2.80;;;11.70;99.90;;;;;;5067760;28;20210;-53
2021/05/09 03:46:33;;;;;;;3.30;2.60;;;11.60;99.90;;;;;;5067072;28;20458;-52
2021/05/09 03:48:59;;;;;;;3.05;2.75;;;11.50;99.90;;;;;;5067153;28;20626;-53
2021/05/09 03:51:24;;;;;;;3.23;3.03;;;11.60;99.90;;;;;;5067121;28;20272;-53
2021/05/09 03:53:50;;;;;;;3.60;2.60;;;11.30;99.90;;;;;;5067259;28;20247;-53
2021/05/09 03:56:15;;;;;;;3.20;2.70;;;11.20;99.90;;;;;;5067417;28;20757;-52
2021/05/09 03:58:41;;;;;;;4.40;2.90;;;10.90;99.90;;;;;;5066871;28;20182;-53
2021/05/09 04:01:07;;;;;;;3.10;2.70;;;11.60;99.90;;;;;;5067124;28;20565;-53
2021/05/09 04:03:32;;;;;;;3.20;2.90;;;11.40;99.90;;;;;;5066773;28;20208;-52
2021/05/09 04:05:58;;;;;;;3.30;2.53;;;11.40;99.90;;;;;;5067085;28;20212;-53
2021/05/09 04:08:27;;;;;;;3.40;3.10;;;10.90;99.90;;;;;;5067247;28;20216;-52
2021/05/09 04:10:58;;;;;;;4.50;3.03;;;11.40;99.90;;;;;;5067295;28;20240;-53
2021/05/09 04:13:24;;;;;;;3.10;2.80;;;11.40;99.90;;;;;;5066682;28;20728;-53
2021/05/09 04:15:50;;;;;;;2.85;2.65;;;11.20;99.90;;;;;;5066550;28;20209;-53
2021/05/09 04:18:15;;;;;;;3.33;2.75;;;11.30;99.90;;;;;;5068788;28;20653;-53
2021/05/09 04:20:41;;;;;;;2.77;2.50;;;11.30;99.90;;;;;;5071376;28;20189;-52
2021/05/09 04:23:14;;;;;;;2.97;2.47;;;11.30;99.90;;;;;;5063588;28;21065;-53
2021/05/09 04:25:46;;;;;;;3.42;2.40;;;11.10;99.90;;;;;;5061499;28;20543;-53
2021/05/09 04:28:11;;;;;;;5.93;2.95;;;11.50;99.90;;;;;;5067047;28;20235;-53
2021/05/09 04:30:37;;;;;;;2.67;2.40;;;11.40;99.90;;;;;;5066886;28;20186;-52
2021/05/09 04:33:05;;;;;;;3.27;2.97;;;11.50;99.90;;;;;;5066117;28;20592;-53
2021/05/09 04:35:31;;;;;;;2.63;2.30;;;11.60;99.90;;;;;;5068747;28;20177;-53
2021/05/09 04:37:58;;;;;;;3.05;2.75;;;11.30;99.90;;;;;;5066086;28;20275;-53
2021/05/09 04:40:24;;;;;;;3.33;2.60;;;11.60;99.90;;;;;;5069014;28;20656;-53
2021/05/09 04:42:50;;;;;;;3.38;3.10;;;11.30;99.90;;;;;;5070145;28;20245;-53
2021/05/09 04:45:16;;;;;;;4.35;2.50;;;11.80;99.90;;;;;;5069792;28;20192;-53
2021/05/09 04:47:42;;;;;;;2.90;2.70;;;11.80;99.90;;;;;;5070191;28;20185;-53
2021/05/09 04:50:09;;;;;;;3.15;2.67;;;11.70;99.90;;;;;;5070026;28;20605;-53
2021/05/09 04:52:39;;;;;;;3.03;2.70;;;12.10;99.90;;;;;;5070355;28;20293;-53
2021/05/09 04:55:09;;;;;;;3.05;2.75;;;12.00;99.90;;;;;;5071372;28;20276;-52
2021/05/09 04:57:35;;;;;;;4.57;2.40;;;12.10;99.90;;;;;;5069333;28;21480;-53
2021/05/09 05:00:03;;;;;;;3.40;3.10;;;12.30;99.90;;;;;;5069782;28;20191;-53
2021/05/09 05:02:29;;;;;;;4.38;2.80;;;12.30;99.90;;;;;;5069975;28;20250;-52
2021/05/09 05:04:54;;;;;;;2.60;2.40;;;12.20;99.90;;;;;;5069730;28;20729;-54
2021/05/09 05:07:20;;;;;;;2.73;2.50;;;12.50;99.90;;;;;;5064625;28;20277;-53
2021/05/09 05:09:46;;;;;;;3.20;2.60;;;12.50;99.90;;;;;;5071453;28;20194;-53
2021/05/09 05:12:12;;;;;;;3.10;2.90;;;12.60;99.90;;;;;;5065259;28;20535;-53
2021/05/09 05:14:38;;;;;;;3.03;2.73;;;12.50;99.90;;;;;;5069136;28;20684;-53
2021/05/09 05:17:03;;;;;;;5.18;2.92;;;12.10;99.90;;;;;;5068010;28;20458;-53
2021/05/09 05:19:29;;;;;;;3.00;2.73;;;12.50;99.90;;;;;;5066831;28;20264;-53
2021/05/09 05:21:55;;;;;;;3.20;3.00;;;12.40;99.90;;;;;;5069685;28;20183;-54
2021/05/09 05:24:20;;;;;;;2.90;2.70;;;12.50;99.90;;;;;;5069579;28;20207;-53
2021/05/09 05:26:46;;;;;;;2.57;2.37;;;12.80;99.90;;;;;;5075098;28;20232;-54
2021/05/09 05:29:12;;;;;;;2.70;2.50;;;12.70;99.90;;;;;;5069694;28;20187;-54
2021/05/09 05:31:37;;;;;;;3.20;2.90;;;12.70;99.90;;;;;;5069035;28;20714;-54
2021/05/09 05:34:03;;;;;;;2.70;2.50;;;13.20;99.90;;;;;;5069030;28;21014;-54
2021/05/09 05:36:31;;;;;;;3.00;2.75;;;13.20;99.90;;;;;;5068681;28;20189;-55
2021/05/09 05:38:58;;;;;;;3.20;2.90;;;13.10;99.90;;;;;;5068410;28;20660;-54
2021/05/09 05:41:23;;;;;;;2.80;2.60;;;13.50;99.90;;;;;;5066167;28;20204;-55
2021/05/09 05:43:49;;;;;;;3.37;3.07;;;13.30;99.90;;;;;;5067822;28;20232;-54
2021/05/09 05:46:14;;;;;;;3.30;3.00;;;13.70;99.90;;;;;;5068842;28;20185;-54
2021/05/09 05:48:40;;;;;;;4.17;2.63;;;13.80;99.90;;;;;;5064204;28;20173;-54
2021/05/09 05:51:06;;;;;;;3.23;2.43;;;14.30;99.90;;;;;;5071923;28;20187;-54
2021/05/09 05:53:31;;;;;;;3.00;2.70;;;14.20;99.90;;;;;;5069196;28;20213;-54
2021/05/09 05:55:57;;;;;;;3.23;2.77;;;14.30;99.90;;;;;;5070907;28;20177;-54
2021/05/09 05:58:23;;;;;;;2.90;2.60;;;14.50;99.90;;;;;;5069015;28;20181;-54
2021/05/09 06:00:49;;;;;;;3.15;2.85;;;14.60;99.90;;;;;;5067402;28;20177;-54
2021/05/09 06:03:15;;;;;;;2.80;2.60;;;14.90;99.80;;;;;;5066088;28;20215;-55
2021/05/09 06:05:48;;;;;;;3.53;3.00;;;15.00;99.20;;;;;;5061783;28;20443;-54
2021/05/09 06:08:16;;;;;;;3.80;3.50;;;15.30;98.60;;;;;;5065234;28;20203;-52
2021/05/09 06:10:42;;;;;;;3.55;3.08;;;15.40;98.30;;;;;;5065848;28;20192;-52
2021/05/09 06:13:07;;;;;;;3.42;3.13;;;15.40;97.90;;;;;;5062872;28;20212;-52
2021/05/09 06:15:33;;;;;;;3.67;3.20;;;15.30;97.70;;;;;;5064734;28;20185;-54
2021/05/09 06:17:58;;;;;;;3.70;3.40;;;15.40;97.80;;;;;;5069675;28;20197;-53
2021/05/09 06:20:26;;;;;;;3.90;3.60;;;15.50;97.30;;;;;;5068764;28;20172;-54
2021/05/09 06:22:59;;;;;;;3.50;3.20;;;15.70;97.40;;;;;;5066396;28;20292;-53
2021/05/09 06:25:25;;;;;;;5.10;4.70;;;15.40;97.30;;;;;;5063445;28;20185;-53
2021/05/09 06:27:51;;;;;;;3.88;3.58;;;15.60;97.40;;;;;;5044600;28;20555;-53
2021/05/09 06:30:17;;;;;;;4.10;3.60;;;15.40;96.60;;;;;;5067345;28;20212;-52
2021/05/09 06:32:43;;;;;;;4.10;3.70;;;15.00;96.00;;;;;;5064312;28;20678;-52
2021/05/09 06:35:09;;;;;;;4.60;4.20;;;15.60;96.00;;;;;;5070874;28;20424;-54
2021/05/09 06:37:35;;;;;;;4.37;3.97;;;15.90;95.50;;;;;;5068464;28;20366;-51
2021/05/09 06:40:01;;;;;;;3.95;3.63;;;15.80;95.30;;;;;;5066612;28;20447;-53
2021/05/09 06:42:27;;;;;;;4.38;3.95;;;15.90;95.30;;;;;;5065576;28;20196;-53
2021/05/09 06:44:58;;;;;;;4.37;3.60;;;16.10;94.80;;;;;;5067529;28;20185;-54
2021/05/09 06:47:24;;;;;;;3.88;3.50;;;16.10;94.40;;;;;;5065584;28;20468;-53
2021/05/09 06:49:50;;;;;;;3.93;3.00;;;16.50;93.70;;;;;;5066576;28;20267;-54
2021/05/09 06:52:15;;;;;;;3.50;3.17;;;17.00;92.50;;;;;;5069392;28;20247;-55
2021/05/09 06:54:41;;;;;;;3.33;3.10;;;17.80;91.10;;;;;;5065716;28;20650;-56
2021/05/09 06:57:07;;;;;;;6.67;5.70;;;18.80;89.50;;;;;;5066574;28;20499;-55
2021/05/09 06:59:33;;;;;;;10.05;6.80;;;19.80;85.10;;;;;;5064861;28;21016;-55
2021/05/09 07:01:59;;;;;;;5.67;5.00;;;21.10;80.30;;;;;;5061990;28;20197;-55
2021/05/09 07:04:24;;;;;;;4.03;3.63;;;22.80;74.80;;;;;;5064122;28;20217;-56
2021/05/09 07:06:50;;;;;;;3.57;3.27;;;24.30;68.10;;;;;;5066077;28;20454;-55
2021/05/09 07:09:16;;;;;;;3.20;3.00;;;25.40;61.10;;;;;;5066361;28;20717;-55
2021/05/09 07:11:41;;;;;;;3.53;3.33;;;26.70;58.10;;;;;;5066786;28;20518;-54
2021/05/09 07:14:07;;;;;;;3.50;3.20;;;28.30;54.90;;;;;;5064974;28;22165;-53
2021/05/09 07:16:33;;;;;;;4.83;3.37;;;30.20;50.50;;;;;;5063208;28;20177;-53
2021/05/09 07:19:01;;;;;;;4.07;2.90;;;31.80;47.20;;;;;;5065640;28;20189;-54
2021/05/09 07:21:30;;;;;;;3.37;2.70;;;33.10;44.40;;;;;;5062955;28;20469;-53
2021/05/09 07:23:55;;;;;;;3.13;2.87;;;34.00;40.40;;;;;;5062433;28;20459;-54
2021/05/09 07:26:21;;;;;;;2.73;2.53;;;34.50;38.20;;;;;;5047868;28;20431;-53
2021/05/09 07:28:47;;;;;;;2.70;2.50;;;34.80;36.70;;;;;;5051055;28;20661;-53
2021/05/09 07:31:14;;;;;;;3.40;3.10;;;35.30;36.40;;;;;;5052619;28;20200;-53
2021/05/09 07:33:41;;;;;;;2.63;2.37;;;35.90;35.00;;;;;;5054847;28;20212;-53
2021/05/09 07:36:07;;;;;;;3.10;2.90;;;36.30;33.70;;;;;;5063747;28;20482;-56
2021/05/09 07:38:33;;;;;;;3.40;3.10;;;35.60;33.80;;;;;;5054075;28;20526;-53
2021/05/09 07:40:59;;;;;;;3.07;2.87;;;35.70;33.60;;;;;;5064974;28;20789;-53
2021/05/09 07:43:25;;;;;;;3.23;2.70;;;34.50;34.70;;;;;;5061084;28;20463;-54
2021/05/09 07:45:50;;;;;;;3.30;2.63;;;34.60;34.60;;;;;;5067609;28;20450;-55
2021/05/09 07:48:16;;;;;;;3.33;2.90;;;33.90;35.60;;;;;;5061678;28;20189;-55
2021/05/09 07:50:42;;;;;;;2.70;2.50;;;33.00;36.50;;;;;;5065917;28;20223;-55
2021/05/09 07:53:08;;;;;;;3.07;2.87;;;32.70;37.10;;;;;;5066151;28;20216;-55
2021/05/09 07:55:34;;;;;;;2.87;2.67;;;33.50;36.50;;;;;;5063453;28;20525;-54
2021/05/09 07:57:59;;;;;;;3.10;2.80;;;34.10;35.30;;;;;;5065678;28;20839;-53
2021/05/09 08:00:26;;;;;;;4.27;2.60;;;33.90;35.10;;;;;;5059225;28;20264;-54
2021/05/09 08:02:52;;;;;;;4.07;2.60;;;33.60;35.70;;;;;;5064009;28;20254;-54
2021/05/09 08:05:19;;;;;;;3.87;2.70;;;33.80;35.60;;;;;;5061880;28;20907;-54
2021/05/09 08:07:56;;;;;;;3.20;2.60;;;33.90;36.50;;;;;;5065149;28;20431;-55
2021/05/09 08:10:24;;;;;;;2.80;2.60;;;34.40;34.70;;;;;;5064838;28;20446;-54
2021/05/09 08:12:52;;;;;;;2.70;2.50;;;34.30;35.80;;;;;;5065496;28;20925;-54
2021/05/09 08:15:19;;;;;;;2.47;2.37;;;35.10;33.80;;;;;;5067067;28;20439;-54
2021/05/09 08:17:47;;;;;;;1.80;1.70;;;35.40;33.80;;;;;;5069073;28;20526;-55
2021/05/09 08:20:15;;;;;;;3.33;3.00;;;34.30;33.80;;;;;;5070878;28;20523;-55
2021/05/09 08:22:40;;;;;;;3.23;2.77;;;34.40;33.30;;;;;;5070890;28;20461;-55
2021/05/09 08:25:07;;;;;;;2.07;1.97;;;34.50;34.10;;;;;;5062930;28;20508;-55
2021/05/09 08:27:34;;;;;;;1.73;1.63;;;35.40;32.40;;;;;;5069422;28;20189;-54
2021/05/09 08:30:04;;;;;;;1.57;1.47;;;36.10;31.40;;;;;;5068504;28;20446;-55
2021/05/09 08:32:30;;;;;;;1.57;1.40;;;36.10;30.70;;;;;;5068577;28;20470;-54
2021/05/09 08:34:57;;;;;;;1.50;1.40;;;35.30;31.40;;;;;;5071519;28;20496;-55
2021/05/09 08:37:23;;;;;;;2.33;1.37;;;35.80;30.30;;;;;;5068646;28;20220;-55
2021/05/09 08:39:49;;;;;;;1.47;1.20;;;35.70;30.10;;;;;;5068345;28;20497;-55
2021/05/09 08:42:18;;;;;;;1.50;1.40;;;37.00;29.30;;;;;;5069285;28;20603;-54
2021/05/09 08:44:45;;;;;;;1.63;1.53;;;37.40;29.00;;;;;;5069024;28;20204;-55
2021/05/09 08:47:12;;;;;;;1.67;1.50;;;37.60;28.80;;;;;;5064505;28;20858;-55
2021/05/09 08:49:41;;;;;;;1.60;1.50;;;36.50;29.50;;;;;;5069185;28;20541;-55
2021/05/09 08:52:11;;;;;;;1.57;1.30;;;37.00;29.50;;;;;;5070378;28;20554;-54
2021/05/09 08:54:37;;;;;;;1.53;1.43;;;37.30;29.10;;;;;;5067150;28;20465;-54
2021/05/09 08:57:06;;;;;;;1.40;1.30;;;37.10;29.50;;;;;;5065538;28;20527;-55
2021/05/09 08:59:32;;;;;;;1.60;1.50;;;37.40;29.10;;;;;;5067831;28;20435;-54
2021/05/09 09:01:57;;;;;;;1.83;1.40;;;37.40;28.80;;;;;;5069172;28;20777;-55
2021/05/09 09:04:23;;;;;;;1.67;1.57;;;37.00;29.30;;;;;;5070810;28;20296;-54
2021/05/09 09:06:53;;;;;;;1.93;1.30;;;37.60;28.70;;;;;;5067768;28;20192;-55
2021/05/09 09:09:24;;;;;;;2.13;1.40;;;38.00;28.70;;;;;;5069895;28;20842;-54
2021/05/09 09:11:57;;;;;;;1.60;1.50;;;38.30;27.60;;;;;;5069360;28;20520;-54
2021/05/09 09:14:27;;;;;;;1.70;1.60;;;38.10;27.20;;;;;;5067980;28;20455;-54
2021/05/09 09:17:13;;;;;;;2.07;1.57;;;38.60;27.40;;;;;;5067561;28;20435;-54
2021/05/09 09:20:08;;;;;;;1.30;1.20;;;38.00;27.60;;;;;;5068046;28;20435;-54
2021/05/09 09:23:04;;;;;;;1.47;1.37;;;38.50;27.00;;;;;;5063602;28;20443;-54
2021/05/09 09:25:34;;;;;;;1.43;1.33;;;38.60;26.50;;;;;;5066225;28;20486;-55
2021/05/09 09:28:01;;;;;;;2.50;1.40;;;38.10;26.30;;;;;;5068221;28;20817;-55
2021/05/09 09:30:28;;;;;;;1.83;1.30;;;38.50;27.20;;;;;;5069673;28;20468;-54
2021/05/09 09:33:26;;;;;;;2.93;1.60;;;39.20;26.60;;;;;;5066435;28;20486;-55
2021/05/09 09:35:57;;;;;;;1.80;1.67;;;38.70;26.60;;;;;;5056348;28;20978;-54
2021/05/09 09:38:26;;;;;;;2.20;2.00;;;38.70;26.40;;;;;;5067603;28;21186;-56
2021/05/09 09:41:18;;;;;;;1.70;1.60;;;38.50;26.50;;;;;;5062557;28;20576;-53
2021/05/09 09:44:01;;;;;;;1.63;1.53;;;39.10;25.80;;;;;;5065771;28;21028;-54
2021/05/09 09:46:32;;;;;;;1.70;1.60;;;38.60;25.90;;;;;;5065315;28;20470;-54
2021/05/09 09:48:58;;;;;;;2.03;1.67;;;38.90;26.20;;;;;;5061860;28;20436;-54
2021/05/09 09:51:24;;;;;;;1.50;1.40;;;39.30;25.20;;;;;;5065174;28;20449;-54
2021/05/09 09:53:51;;;;;;;1.80;1.70;;;38.80;25.30;;;;;;5068275;28;20839;-54
2021/05/09 09:56:19;;;;;;;2.03;1.60;;;39.10;25.10;;;;;;5069020;28;20946;-54
2021/05/09 09:58:52;;;;;;;2.00;1.43;;;39.10;25.20;;;;;;5059985;28;20956;-54
2021/05/09 10:01:25;;;;;;;1.40;1.30;;;39.30;24.80;;;;;;5063051;28;20578;-53
2021/05/09 10:03:52;;;;;;;1.80;1.70;;;39.10;25.40;;;;;;5065851;28;20871;-52
2021/05/09 10:06:19;;;;;;;3.40;1.60;;;39.50;26.00;;;;;;5065398;28;20807;-51
2021/05/09 10:08:46;;;;;;;1.70;1.60;;;38.60;26.50;;;;;;5067214;28;20439;-53
2021/05/09 10:11:13;;;;;;;1.40;1.30;;;38.90;25.00;;;;;;5067799;28;20442;-53
2021/05/09 10:13:39;;;;;;;1.43;1.30;;;37.80;24.90;;;;;;5066412;28;20475;-51
2021/05/09 10:16:06;;;;;;;1.83;1.40;;;37.20;25.60;;;;;;5067708;28;20559;-54
2021/05/09 10:18:32;;;;;;;1.40;1.30;;;36.30;26.30;;;;;;5067947;28;20534;-53
2021/05/09 10:21:00;;;;;;;1.80;1.70;;;35.70;26.80;;;;;;5066135;28;20434;-53
2021/05/09 10:23:26;;;;;;;1.90;1.80;;;35.50;27.00;;;;;;5070596;28;21044;-53
2021/05/09 10:25:53;;;;;;;1.73;1.63;;;34.70;27.10;;;;;;5067147;28;20435;-52
2021/05/09 10:28:24;;;;;;;1.70;1.60;;;34.20;27.60;;;;;;5067656;28;21004;-52
2021/05/09 10:30:54;;;;;;;1.97;1.53;;;34.00;27.80;;;;;;5061584;28;20912;-53
2021/05/09 10:33:38;;;;;;;1.83;1.73;;;33.60;27.60;;;;;;5065745;28;20479;-53
2021/05/09 10:36:09;;;;;;;4.80;1.50;;;33.10;28.60;;;;;;5061271;28;20437;-52
2021/05/09 10:39:06;;;;;;;21.97;19.80;;;32.60;28.40;;;;;;5066246;28;20490;-53
2021/05/09 10:41:33;;;;;;;2.70;2.37;;;32.50;29.40;;;;;;5066002;28;20449;-53
2021/05/09 10:43:58;;;;;;;2.10;1.57;;;32.50;29.70;;;;;;5067499;28;20915;-54
2021/05/09 10:46:24;;;;;;;1.50;1.40;;;32.60;29.00;;;;;;5064253;28;20442;-51
2021/05/09 10:49:10;;;;;;;1.60;1.50;;;32.80;29.00;;;;;;5048511;28;20654;-52
2021/05/09 10:51:37;;;;;;;1.77;1.67;;;32.70;28.90;;;;;;5065256;28;20286;-53
2021/05/09 10:54:21;;;;;;;1.83;1.73;;;32.70;28.70;;;;;;5066145;28;20453;-54
2021/05/09 10:56:47;;;;;;;2.13;1.50;;;32.70;28.80;;;;;;5064865;28;20813;-54
2021/05/09 10:59:13;;;;;;;2.00;1.60;;;33.20;28.40;;;;;;5059053;28;20459;-53
2021/05/09 11:01:39;;;;;;;2.30;1.70;;;33.90;27.80;;;;;;5056187;28;20428;-53
2021/05/09 11:04:11;;;;;;;1.83;1.40;;;34.70;27.80;;;;;;5067047;28;20748;-52
2021/05/09 11:06:40;;;;;;;1.53;1.27;;;35.00;26.60;;;;;;5070477;28;20184;-52
2021/05/09 11:09:15;;;;;;;1.50;1.30;;;35.70;26.10;;;;;;5065969;28;20486;-52
2021/05/09 11:11:41;;;;;;;1.40;1.10;;;35.60;26.30;;;;;;5065101;28;20458;-52
2021/05/09 11:14:12;;;;;;;1.30;1.20;;;35.20;26.10;;;;;;5069267;28;20458;-52
2021/05/09 11:16:58;;;;;;;1.53;1.43;;;35.50;26.00;;;;;;5065856;28;20658;-52
2021/05/09 11:19:32;;;;;;;2.00;1.80;;;35.80;25.50;;;;;;5065230;28;20545;-51
2021/05/09 11:21:58;;;;;;;3.80;1.57;;;36.30;25.50;;;;;;5065782;28;20461;-52
2021/05/09 11:24:30;;;;;;;2.97;1.87;;;36.40;25.20;;;;;;5069234;28;21003;-52
2021/05/09 11:27:04;;;;;;;1.70;1.53;;;36.60;25.70;;;;;;5065662;28;20216;-52
2021/05/09 11:29:30;;;;;;;1.50;1.33;;;36.30;25.80;;;;;;5063642;28;20534;-51
2021/05/09 11:32:07;;;;;;;2.53;1.50;;;36.60;25.00;;;;;;5066659;28;20474;-52
2021/05/09 11:34:32;;;;;;;1.33;1.23;;;36.00;25.40;;;;;;5069365;28;20457;-51
2021/05/09 11:36:58;;;;;;;1.50;1.40;;;35.70;25.60;;;;;;5072618;28;20490;-51
2021/05/09 11:39:30;;;;;;;2.90;2.00;;;35.40;25.40;;;;;;5068504;28;20257;-51
2021/05/09 11:41:58;;;;;;;1.63;1.33;;;35.00;26.20;;;;;;5067479;28;20522;-51
2021/05/09 11:44:48;;;;;;;1.40;1.20;;;34.80;26.00;;;;;;5068085;28;20466;-52
2021/05/09 11:47:25;;;;;;;1.93;1.50;;;34.30;26.30;;;;;;5054485;28;20975;-53
2021/05/09 11:49:58;;;;;;;1.30;1.20;;;34.10;26.60;;;;;;5071265;28;20966;-52
2021/05/09 11:52:30;;;;;;;1.93;1.43;;;33.80;26.70;;;;;;5066558;28;20466;-52
2021/05/09 11:54:58;;;;;;;2.03;1.30;;;33.80;26.70;;;;;;5070329;28;20438;-52
2021/05/09 11:57:28;;;;;;;1.60;1.50;;;33.30;27.00;;;;;;5069814;28;20442;-52
2021/05/09 12:00:01;;;;;;;1.57;1.30;;;33.10;27.30;;;;;;5071266;28;20543;-52
2021/05/09 12:02:38;;;;;;;2.40;1.40;;;32.70;27.70;;;;;;5067130;28;22501;-52
2021/05/09 12:05:12;;;;;;;2.40;1.60;;;32.30;28.50;;;;;;5063506;28;21034;-52
2021/05/09 12:07:59;;;;;;;2.03;1.67;;;31.90;28.50;;;;;;5068206;28;20435;-52
2021/05/09 12:10:25;;;;;;;1.97;1.57;;;31.90;28.80;;;;;;5070908;28;21032;-52
2021/05/09 12:12:55;;;;;;;1.93;1.80;;;31.80;29.20;;;;;;5070867;28;20474;-52
2021/05/09 12:15:24;;;;;;;1.40;1.30;;;31.60;29.30;;;;;;5071731;28;20184;-53
2021/05/09 12:17:55;;;;;;;1.70;1.60;;;31.50;29.60;;;;;;5068052;28;20482;-53
2021/05/09 12:20:43;;;;;;;2.63;2.43;;;31.50;29.60;;;;;;5068183;28;20441;-53
2021/05/09 12:23:11;;;;;;;1.30;1.20;;;31.40;29.40;;;;;;5067447;28;20461;-52
2021/05/09 12:25:42;;;;;;;2.40;1.20;;;31.50;29.30;;;;;;5066775;28;20481;-53
2021/05/09 12:28:14;;;;;;;2.13;1.60;;;31.50;29.30;;;;;;5071063;28;20449;-52
2021/05/09 12:30:41;;;;;;;1.50;1.40;;;31.50;29.10;;;;;;5069248;28;20443;-52
2021/05/09 12:33:07;;;;;;;2.03;1.43;;;31.60;29.10;;;;;;5069528;28;20474;-52
2021/05/09 12:35:48;;;;;;;3.00;2.30;;;31.60;28.80;;;;;;5068144;28;20450;-52
2021/05/09 12:38:28;;;;;;;1.50;1.40;;;31.60;29.30;;;;;;5067483;28;20449;-53
2021/05/09 12:41:06;;;;;;;5.50;4.47;;;31.60;29.10;;;;;;5067877;28;20479;-52
2021/05/09 12:43:51;;;;;;;1.83;1.40;;;31.70;29.70;;;;;;5063884;28;20459;-53
2021/05/09 12:46:35;;;;;;;1.67;1.57;;;31.40;29.30;;;;;;5066880;28;20438;-52
2021/05/09 12:49:13;;;;;;;2.10;1.50;;;31.30;29.50;;;;;;5066746;28;21188;-52